createdAt,value
2017-09-06T08:46:20.886Z,71.90
2017-09-06T08:47:08.127Z,69.50
2017-09-06T08:48:08.101Z,70.90
2017-09-06T08:49:08.084Z,67.40
2017-09-06T08:50:08.060Z,69.30
2017-09-06T08:51:08.038Z,69.70
2017-09-06T08:52:08.022Z,61.40
2017-09-06T08:53:07.998Z,64.20
2017-09-06T08:54:07.973Z,65.40
2017-09-06T08:55:07.955Z,60.30
2017-09-06T08:56:07.929Z,64.40
2017-09-06T08:57:07.908Z,61.60
2017-09-06T08:58:07.890Z,60.90
2017-09-06T08:59:07.864Z,58.60
2017-09-06T09:00:07.843Z,58.40
2017-09-06T09:01:07.825Z,59.80
2017-09-06T09:02:07.802Z,55.50
2017-09-06T09:03:07.780Z,58.70
2017-09-06T09:04:07.760Z,55.40
2017-09-06T09:05:07.736Z,51.50
2017-09-06T09:06:07.718Z,53.50
2017-09-06T09:07:07.692Z,49.30
2017-09-06T09:08:07.674Z,49.80
2017-09-06T09:09:07.653Z,51.10
2017-09-06T09:10:07.633Z,51.00
2017-09-06T09:11:07.605Z,50.50
2017-09-06T09:12:07.586Z,50.60
2017-09-06T09:13:07.597Z,52.20
2017-09-06T09:14:07.541Z,51.20
2017-09-06T09:15:07.523Z,49.00
2017-09-06T09:16:07.500Z,47.80
2017-09-06T09:17:07.479Z,48.60
2017-09-06T09:18:07.460Z,47.90
2017-09-06T09:19:07.435Z,48.20
2017-09-06T09:20:07.412Z,47.80
2017-09-06T09:21:07.389Z,48.60
2017-09-06T09:22:07.373Z,46.20
2017-09-06T09:23:07.345Z,44.00
2017-09-06T09:24:07.328Z,44.70
2017-09-06T09:25:07.307Z,45.50
2017-09-06T09:26:07.285Z,44.60
2017-09-06T09:27:07.261Z,45.30
2017-09-06T09:28:07.244Z,42.80
2017-09-06T09:29:07.217Z,40.70
2017-09-06T09:30:07.200Z,42.10
2017-09-06T09:31:07.178Z,40.90
2017-09-06T09:32:07.155Z,40.50
2017-09-06T09:33:07.135Z,40.40
2017-09-06T09:34:07.111Z,41.10
2017-09-06T09:35:07.090Z,40.60
2017-09-06T09:36:07.070Z,39.10
2017-09-06T09:37:07.044Z,40.00
2017-09-06T09:38:07.023Z,39.80
2017-09-06T09:39:07.004Z,39.70
2017-09-06T09:40:06.982Z,39.70
2017-09-06T09:41:06.960Z,37.00
2017-09-06T09:42:06.936Z,39.30
2017-09-06T09:43:06.917Z,37.70
2017-09-06T09:44:06.892Z,35.10
2017-09-06T09:45:06.874Z,34.50
2017-09-06T09:46:06.854Z,36.20
2017-09-06T09:47:06.832Z,34.60
2017-09-06T09:48:06.810Z,34.80
2017-09-06T09:49:06.789Z,35.30
2017-09-06T09:50:06.765Z,33.60
2017-09-06T09:51:06.743Z,32.30
2017-09-06T09:52:06.724Z,33.30
2017-09-06T09:53:06.699Z,33.10
2017-09-06T09:54:06.678Z,34.10
2017-09-06T09:55:06.659Z,33.70
2017-09-06T09:56:06.637Z,35.40
2017-09-06T09:57:06.611Z,35.90
2017-09-06T09:58:06.594Z,36.70
2017-09-06T09:59:06.573Z,35.50
2017-09-06T10:00:06.551Z,35.50
2017-09-06T10:01:06.530Z,33.30
2017-09-06T10:02:06.508Z,34.60
2017-09-06T10:03:06.486Z,35.40
2017-09-06T10:04:06.465Z,35.20
2017-09-06T10:05:06.444Z,34.90
2017-09-06T10:06:06.421Z,34.10
2017-09-06T10:07:06.398Z,33.50
2017-09-06T10:08:06.374Z,34.00
2017-09-06T10:09:06.357Z,32.90
2017-09-06T10:10:06.332Z,32.50
2017-09-06T10:11:06.312Z,33.00
2017-09-06T10:12:06.288Z,32.30
2017-09-06T10:13:06.272Z,32.30
2017-09-06T10:14:06.249Z,32.20
2017-09-06T10:15:06.225Z,32.20
2017-09-06T10:16:06.201Z,31.00
2017-09-06T10:17:06.184Z,32.20
2017-09-06T10:18:06.161Z,31.70
2017-09-06T10:19:06.141Z,31.40
2017-09-06T10:20:06.120Z,30.30
2017-09-06T10:21:06.097Z,31.90
2017-09-06T10:22:06.076Z,29.90
2017-09-06T10:23:06.053Z,31.80
2017-09-06T10:24:06.031Z,29.80
2017-09-06T10:25:06.007Z,30.40
2017-09-06T10:26:05.990Z,31.30
2017-09-06T10:27:05.964Z,29.50
2017-09-06T10:28:05.942Z,30.60
2017-09-06T10:29:05.924Z,29.20
2017-09-06T10:30:05.902Z,30.20
2017-09-06T10:31:05.879Z,30.50
2017-09-06T10:32:05.857Z,30.20
2017-09-06T10:33:05.835Z,29.70
2017-09-06T10:34:05.813Z,28.60
2017-09-06T10:35:05.792Z,30.40
2017-09-06T10:36:05.775Z,28.90
2017-09-06T10:37:05.752Z,29.40
2017-09-06T10:38:05.730Z,29.50
2017-09-06T10:39:05.708Z,28.30
2017-09-06T10:40:05.684Z,28.30
2017-09-06T10:41:05.662Z,28.10
2017-09-06T10:42:05.646Z,27.80
2017-09-06T10:43:05.622Z,27.80
2017-09-06T10:44:05.601Z,28.60
2017-09-06T10:45:05.577Z,27.40
2017-09-06T10:46:05.556Z,27.90
2017-09-06T10:47:05.535Z,26.90
2017-09-06T10:48:05.515Z,28.20
2017-09-06T10:49:05.490Z,27.70
2017-09-06T10:50:05.468Z,26.60
2017-09-06T10:51:05.447Z,27.30
2017-09-06T10:52:05.463Z,26.60
2017-09-06T10:53:05.409Z,27.20
2017-09-06T10:54:05.387Z,27.50
2017-09-06T10:55:05.361Z,27.10
2017-09-06T10:56:05.342Z,27.10
2017-09-06T10:57:05.321Z,26.10
2017-09-06T10:58:05.297Z,26.30
2017-09-06T10:59:05.281Z,26.20
2017-09-06T11:00:05.254Z,26.50
2017-09-06T11:01:05.236Z,25.40
2017-09-06T11:02:05.213Z,26.10
2017-09-06T11:03:05.189Z,25.40
2017-09-06T11:04:05.170Z,24.90
2017-09-06T11:05:05.148Z,25.10
2017-09-06T11:06:05.128Z,26.80
2017-09-06T11:07:05.105Z,25.70
2017-09-06T11:08:05.085Z,26.20
2017-09-06T11:09:05.064Z,24.30
2017-09-06T11:10:05.039Z,25.60
2017-09-06T11:11:05.020Z,25.80
2017-09-06T11:12:04.999Z,26.30
2017-09-06T11:13:04.976Z,26.20
2017-09-06T11:14:04.957Z,24.50
2017-09-06T11:15:04.934Z,24.00
2017-09-06T11:16:04.912Z,24.70
2017-09-06T11:17:04.889Z,24.50
2017-09-06T11:18:04.867Z,23.60
2017-09-06T11:19:04.849Z,24.20
2017-09-06T11:20:04.828Z,24.00
2017-09-06T11:21:04.805Z,23.70
2017-09-06T11:22:04.785Z,23.40
2017-09-06T11:23:04.758Z,23.60
2017-09-06T11:24:04.745Z,25.90
2017-09-06T11:25:04.717Z,23.50
2017-09-06T11:26:04.695Z,23.30
2017-09-06T11:27:04.676Z,22.90
2017-09-06T11:28:04.682Z,23.30
2017-09-06T11:29:04.630Z,25.50
2017-09-06T11:30:04.610Z,24.00
2017-09-06T11:31:04.592Z,25.10
2017-09-06T11:32:04.570Z,37.90
2017-09-06T11:33:04.548Z,67.30
2017-09-06T11:34:04.526Z,91.90
2017-09-06T11:35:04.504Z,95.40
2017-09-06T11:36:04.485Z,105.80
2017-09-06T11:37:04.459Z,109.50
2017-09-06T11:38:04.439Z,125.90
2017-09-06T11:39:04.423Z,169.30
2017-09-06T11:42:17.095Z,107.30
2017-09-06T11:43:04.332Z,113.10
2017-09-06T11:44:04.310Z,115.30
2017-09-06T11:45:04.289Z,130.70
2017-09-06T11:46:04.267Z,140.40
2017-09-06T11:47:04.250Z,149.70
2017-09-06T11:48:04.225Z,155.60
2017-09-06T11:49:04.204Z,159.70
2017-09-06T11:50:04.184Z,154.10
2017-09-06T11:51:04.161Z,154.40
2017-09-06T11:52:04.139Z,148.40
2017-09-06T11:53:04.120Z,143.20
2017-09-06T11:54:04.099Z,142.90
2017-09-06T11:55:04.074Z,135.30
2017-09-06T11:56:04.055Z,133.10
2017-09-06T11:57:04.037Z,128.10
2017-09-06T11:58:04.014Z,127.10
2017-09-06T11:59:03.992Z,120.60
2017-09-06T12:00:03.969Z,125.50
2017-09-06T12:01:03.945Z,121.30
2017-09-06T12:02:03.926Z,121.10
2017-09-06T12:03:03.907Z,117.00
2017-09-06T12:04:03.888Z,115.60
2017-09-06T12:05:03.864Z,117.40
2017-09-06T12:06:03.841Z,115.10
2017-09-06T12:07:03.822Z,112.70
2017-09-06T12:08:03.802Z,114.00
2017-09-06T12:09:03.777Z,115.30
2017-09-06T12:10:03.761Z,113.60
2017-09-06T12:11:03.734Z,113.30
2017-09-06T12:12:03.713Z,111.10
2017-09-06T12:13:03.697Z,108.40
2017-09-06T12:14:03.674Z,108.50
2017-09-06T12:15:03.655Z,109.40
2017-09-06T12:16:03.629Z,108.80
2017-09-06T12:17:03.607Z,105.40
2017-09-06T12:18:03.586Z,107.20
2017-09-06T12:19:03.563Z,106.20
2017-09-06T12:20:03.541Z,105.70
2017-09-06T12:21:03.519Z,103.20
2017-09-06T12:22:03.497Z,104.00
2017-09-06T12:23:03.478Z,105.10
2017-09-06T12:24:03.457Z,101.10
2017-09-06T12:25:03.433Z,100.20
2017-09-06T12:26:03.415Z,101.80
2017-09-06T12:27:03.391Z,97.90
2017-09-06T12:28:03.372Z,99.20
2017-09-06T12:29:03.352Z,104.30
2017-09-06T12:30:03.331Z,124.70
2017-09-06T12:31:03.305Z,140.40
2017-09-06T12:32:03.283Z,186.70
2017-09-06T12:33:03.264Z,186.20
2017-09-06T12:34:03.245Z,195.90
2017-09-06T12:35:03.222Z,201.10
2017-09-06T12:36:03.203Z,217.10
2017-09-06T12:37:03.178Z,226.80
2017-09-06T12:38:03.160Z,222.80
2017-09-06T12:39:03.136Z,213.40
2017-09-06T12:40:03.116Z,216.70
2017-09-06T12:41:03.092Z,213.40
2017-09-06T12:42:03.080Z,220.10
2017-09-06T12:43:03.048Z,221.40
2017-09-06T12:44:03.031Z,216.10
2017-09-06T12:45:03.011Z,218.30
2017-09-06T12:46:02.988Z,219.80
2017-09-06T12:47:02.967Z,213.00
2017-09-06T12:48:02.942Z,216.00
2017-09-06T12:49:02.920Z,217.60
2017-09-06T12:50:02.904Z,215.00
2017-09-06T12:51:02.881Z,213.50
2017-09-06T12:52:02.858Z,211.30
2017-09-06T12:53:02.835Z,214.60
2017-09-06T12:54:02.844Z,209.50
2017-09-06T12:55:02.799Z,214.90
2017-09-06T12:56:02.775Z,214.30
2017-09-06T12:57:02.753Z,206.60
2017-09-06T12:58:02.730Z,206.60
2017-09-06T12:59:02.707Z,214.20
2017-09-06T13:00:02.686Z,209.20
2017-09-06T13:01:02.669Z,204.20
2017-09-06T13:02:02.643Z,207.40
2017-09-06T13:03:02.626Z,203.30
2017-09-06T13:04:02.604Z,205.30
2017-09-06T13:05:02.583Z,203.40
2017-09-06T13:06:02.569Z,200.90
2017-09-06T13:07:02.541Z,197.60
2017-09-06T13:08:02.516Z,192.70
2017-09-06T13:09:02.494Z,191.80
2017-09-06T13:10:02.473Z,191.50
2017-09-06T13:11:02.484Z,188.80
2017-09-06T13:12:02.430Z,187.90
2017-09-06T13:13:02.409Z,182.50
2017-09-06T13:14:02.391Z,186.50
2017-09-06T13:15:02.369Z,180.20
2017-09-06T13:16:02.349Z,180.80
2017-09-06T13:17:02.326Z,179.50
2017-09-06T13:18:02.302Z,179.90
2017-09-06T13:19:02.285Z,178.10
2017-09-06T13:20:02.262Z,172.70
2017-09-06T13:21:02.239Z,174.30
2017-09-06T13:22:02.219Z,171.20
2017-09-06T13:23:02.198Z,174.70
2017-09-06T13:24:02.174Z,169.40
2017-09-06T13:25:02.152Z,165.70
2017-09-06T13:26:02.132Z,164.00
2017-09-06T13:27:02.114Z,171.20
2017-09-06T13:28:02.092Z,165.20
2017-09-06T13:29:02.068Z,163.10
2017-09-06T13:30:02.050Z,161.90
2017-09-06T13:31:02.027Z,163.40
2017-09-06T13:32:02.002Z,162.50
2017-09-06T13:33:01.984Z,158.90
2017-09-06T13:34:01.963Z,158.70
2017-09-06T13:35:01.939Z,161.50
2017-09-06T13:36:01.918Z,160.60
2017-09-06T13:37:01.896Z,156.30
2017-09-06T13:38:01.878Z,153.80
2017-09-06T13:39:01.858Z,154.20
2017-09-06T13:40:01.839Z,152.80
2017-09-06T13:41:01.813Z,148.90
2017-09-06T13:42:01.791Z,155.10
2017-09-06T13:43:01.771Z,152.20
2017-09-06T13:44:01.750Z,151.30
2017-09-06T13:45:01.728Z,151.10
2017-09-06T13:46:01.709Z,146.00
2017-09-06T13:47:01.682Z,148.30
2017-09-06T13:48:01.662Z,149.50
2017-09-06T13:49:01.640Z,147.30
2017-09-06T13:50:01.622Z,149.10
2017-09-06T13:51:01.598Z,148.90
2017-09-06T13:52:01.579Z,144.40
2017-09-06T13:53:01.555Z,141.60
2017-09-06T13:54:01.533Z,143.00
2017-09-06T13:55:01.512Z,142.50
2017-09-06T13:56:01.494Z,142.60
2017-09-06T13:57:01.473Z,141.60
2017-09-06T13:58:01.453Z,141.50
2017-09-06T13:59:01.429Z,139.60
2017-09-06T14:00:01.405Z,132.60
2017-09-06T14:01:01.387Z,139.90
2017-09-06T14:02:01.363Z,134.70
2017-09-06T14:03:01.345Z,133.60
2017-09-06T14:04:01.324Z,138.60
2017-09-06T14:05:01.299Z,136.20
2017-09-06T14:06:01.277Z,135.60
2017-09-06T14:07:01.258Z,136.10
2017-09-06T14:08:01.234Z,137.20
2017-09-06T14:09:01.254Z,132.90
2017-09-06T14:10:01.196Z,129.10
2017-09-06T14:11:01.175Z,133.00
2017-09-06T14:12:01.150Z,126.30
2017-09-06T14:13:01.129Z,125.00
2017-09-06T14:14:01.124Z,123.70
2017-09-06T14:15:01.089Z,127.40
2017-09-06T14:16:01.068Z,127.80
2017-09-06T14:17:01.046Z,124.20
2017-09-06T14:18:01.026Z,121.80
2017-09-06T14:19:01.001Z,119.50
2017-09-06T14:20:00.982Z,115.90
2017-09-06T14:21:00.957Z,116.90
2017-09-06T14:22:00.937Z,117.90
2017-09-06T14:23:00.918Z,116.10
2017-09-06T14:24:00.895Z,114.00
2017-09-06T14:25:00.880Z,109.40
2017-09-06T14:26:00.853Z,111.30
2017-09-06T14:27:00.829Z,108.00
2017-09-06T14:28:00.810Z,108.00
2017-09-06T14:29:00.786Z,107.00
2017-09-06T14:30:00.791Z,105.50
2017-09-06T14:31:00.746Z,109.40
2017-09-06T14:32:00.724Z,108.70
2017-09-06T14:33:00.702Z,106.50
2017-09-06T14:34:00.687Z,104.20
2017-09-06T14:35:00.664Z,103.80
2017-09-06T14:36:00.640Z,102.80
2017-09-06T14:37:00.620Z,103.80
2017-09-06T14:38:00.599Z,103.50
2017-09-06T14:39:00.575Z,100.80
2017-09-06T14:40:00.552Z,96.70
2017-09-06T14:41:00.530Z,99.40
2017-09-06T14:42:00.511Z,103.80
2017-09-06T14:43:00.488Z,103.30
2017-09-06T14:44:00.470Z,97.80
2017-09-06T14:45:00.446Z,101.20
2017-09-06T14:46:00.425Z,98.30
2017-09-06T14:47:00.406Z,100.80
2017-09-06T14:48:00.389Z,100.60
2017-09-06T14:49:00.364Z,102.40
2017-09-06T14:50:00.340Z,100.40
2017-09-06T14:51:00.315Z,97.10
2017-09-06T14:52:00.298Z,93.20
2017-09-06T14:53:00.274Z,96.60
2017-09-06T14:54:00.253Z,95.50
2017-09-06T14:55:00.233Z,95.80
2017-09-06T14:56:00.211Z,96.20
2017-09-06T14:57:00.192Z,98.10
2017-09-06T14:58:00.169Z,95.90
2017-09-06T14:59:00.146Z,95.50
2017-09-06T15:00:00.129Z,92.50
2017-09-06T15:01:00.106Z,95.40
2017-09-06T15:02:00.083Z,93.60
2017-09-06T15:03:00.064Z,92.40
2017-09-06T15:04:00.040Z,88.70
2017-09-06T15:05:00.020Z,88.20
2017-09-06T15:06:00.000Z,90.70
2017-09-06T15:06:59.975Z,90.50
2017-09-06T15:07:59.954Z,88.70
2017-09-06T15:08:59.936Z,89.60
2017-09-06T15:09:59.913Z,87.40
2017-09-06T15:10:59.890Z,88.10
2017-09-06T15:11:59.872Z,86.00
2017-09-06T15:12:59.852Z,86.70
2017-09-06T15:13:59.830Z,83.90
2017-09-06T15:14:59.805Z,84.30
2017-09-06T15:15:59.785Z,82.50
2017-09-06T15:16:59.765Z,82.70
2017-09-06T15:17:59.745Z,82.10
2017-09-06T15:18:59.721Z,82.50
2017-09-06T15:19:59.701Z,81.00
2017-09-06T15:20:59.688Z,82.40
2017-09-06T15:21:59.660Z,77.20
2017-09-06T15:22:59.635Z,80.90
2017-09-06T15:23:59.642Z,80.20
2017-09-06T15:24:59.590Z,80.20
2017-09-06T15:25:59.574Z,78.40
2017-09-06T15:26:59.549Z,79.10
2017-09-06T15:27:59.530Z,75.70
2017-09-06T15:28:59.507Z,72.40
2017-09-06T15:29:59.487Z,78.50
2017-09-06T15:30:59.465Z,73.60
2017-09-06T15:31:59.442Z,76.30
2017-09-06T15:32:59.423Z,76.30
2017-09-06T15:33:59.401Z,76.20
2017-09-06T15:34:59.377Z,79.60
2017-09-06T15:35:59.356Z,76.90
2017-09-06T15:36:59.337Z,82.60
2017-09-06T15:37:59.315Z,76.90
2017-09-06T15:38:59.290Z,69.60
2017-09-06T15:39:59.273Z,70.60
2017-09-06T15:40:59.253Z,67.10
2017-09-06T15:41:59.232Z,73.60
2017-09-06T15:42:59.209Z,78.20
2017-09-06T15:43:59.189Z,77.60
2017-09-06T15:44:59.163Z,73.00
2017-09-06T15:45:59.149Z,70.90
2017-09-06T15:46:59.120Z,72.50
2017-09-06T15:47:59.099Z,69.60
2017-09-06T15:48:59.080Z,67.80
2017-09-06T15:49:59.057Z,65.10
2017-09-06T15:50:59.066Z,67.50
2017-09-06T15:51:59.016Z,68.60
2017-09-06T15:52:58.996Z,64.60
2017-09-06T15:53:58.971Z,64.10
2017-09-06T15:54:58.952Z,62.80
2017-09-06T15:55:58.928Z,62.50
2017-09-06T15:56:58.906Z,57.70
2017-09-06T15:57:58.888Z,60.90
2017-09-06T15:58:58.866Z,64.50
2017-09-06T15:59:58.842Z,61.40
2017-09-06T16:00:58.828Z,59.80
2017-09-06T16:01:58.801Z,59.70
2017-09-06T16:02:58.777Z,61.10
2017-09-06T16:03:58.760Z,57.10
2017-09-06T16:04:58.736Z,52.60
2017-09-06T16:05:58.719Z,54.30
2017-09-06T16:06:58.695Z,54.10
2017-09-06T16:07:58.671Z,52.90
2017-09-06T16:08:58.650Z,52.50
2017-09-06T16:09:58.630Z,54.50
2017-09-06T16:10:58.609Z,51.80
2017-09-06T16:11:58.589Z,50.50
2017-09-06T16:12:58.569Z,55.00
2017-09-06T16:13:58.544Z,53.30
2017-09-06T16:14:58.526Z,54.80
2017-09-06T16:15:58.500Z,55.60
2017-09-06T16:16:58.479Z,54.80
2017-09-06T16:17:58.462Z,53.30
2017-09-06T16:18:58.436Z,52.50
2017-09-06T16:19:58.417Z,52.50
2017-09-06T16:20:58.397Z,52.10
2017-09-06T16:21:58.375Z,53.40
2017-09-06T16:22:58.354Z,53.90
2017-09-06T16:23:58.331Z,54.80
2017-09-06T16:24:58.311Z,52.60
2017-09-06T16:25:58.288Z,50.60
2017-09-06T16:26:58.291Z,52.20
2017-09-06T16:27:58.248Z,49.70
2017-09-06T16:28:58.226Z,51.80
2017-09-06T16:29:58.205Z,53.00
2017-09-06T16:30:58.183Z,50.80
2017-09-06T16:31:58.160Z,48.20
2017-09-06T16:32:58.139Z,47.30
2017-09-06T16:33:58.118Z,48.70
2017-09-06T16:34:58.095Z,46.90
2017-09-06T16:35:58.073Z,48.10
2017-09-06T16:36:58.053Z,49.90
2017-09-06T16:37:58.041Z,49.00
2017-09-06T16:38:58.012Z,46.40
2017-09-06T16:39:57.988Z,48.30
2017-09-06T16:40:57.970Z,48.20
2017-09-06T16:41:57.947Z,46.70
2017-09-06T16:42:57.924Z,46.20
2017-09-06T16:43:57.902Z,48.70
2017-09-06T16:44:57.883Z,45.70
2017-09-06T16:45:57.860Z,48.60
2017-09-06T16:46:57.843Z,47.10
2017-09-06T16:47:57.817Z,44.10
2017-09-06T16:48:57.805Z,44.60
2017-09-06T16:49:57.775Z,42.60
2017-09-06T16:50:57.756Z,43.20
2017-09-06T16:51:57.731Z,40.90
2017-09-06T16:52:57.711Z,39.20
2017-09-06T16:53:57.690Z,41.40
2017-09-06T16:54:57.668Z,42.20
2017-09-06T16:55:57.652Z,42.10
2017-09-06T16:56:57.625Z,44.10
2017-09-06T16:57:57.607Z,43.80
2017-09-06T16:58:57.585Z,38.40
2017-09-06T16:59:57.565Z,40.20
2017-09-06T17:00:57.543Z,38.20
2017-09-06T17:01:57.524Z,37.40
2017-09-06T17:02:57.500Z,35.60
2017-09-06T17:03:57.479Z,33.60
2017-09-06T17:04:57.455Z,36.10
2017-09-06T17:05:57.435Z,39.00
2017-09-06T17:06:57.412Z,37.30
2017-09-06T17:07:57.393Z,34.50
2017-09-06T17:08:57.374Z,36.00
2017-09-06T17:09:57.349Z,37.90
2017-09-06T17:10:57.326Z,38.70
2017-09-06T17:11:57.306Z,36.90
2017-09-06T17:12:57.287Z,34.90
2017-09-06T17:13:57.268Z,34.50
2017-09-06T17:14:57.243Z,36.30
2017-09-06T17:15:57.223Z,34.40
2017-09-06T17:16:57.199Z,35.60
2017-09-06T17:17:57.177Z,34.00
2017-09-06T17:18:57.160Z,33.70
2017-09-06T17:19:57.136Z,34.00
2017-09-06T17:20:57.116Z,33.00
2017-09-06T17:21:57.097Z,34.70
2017-09-06T17:22:57.070Z,35.10
2017-09-06T17:23:57.051Z,33.30
2017-09-06T17:24:57.028Z,33.70
2017-09-06T17:25:57.007Z,38.10
2017-09-06T17:26:56.985Z,37.90
2017-09-06T17:27:56.965Z,36.40
2017-09-06T17:28:56.942Z,34.60
2017-09-06T17:29:56.921Z,33.90
2017-09-06T17:30:56.902Z,32.10
2017-09-06T17:31:56.878Z,30.10
2017-09-06T17:32:56.861Z,29.00
2017-09-06T17:33:56.840Z,29.80
2017-09-06T17:34:56.815Z,29.60
2017-09-06T17:35:56.793Z,27.90
2017-09-06T17:36:56.771Z,28.30
2017-09-06T17:37:56.753Z,28.70
2017-09-06T17:38:56.732Z,29.10
2017-09-06T17:39:56.709Z,29.00
2017-09-06T17:40:56.685Z,28.30
2017-09-06T17:41:56.665Z,30.00
2017-09-06T17:42:56.647Z,27.90
2017-09-06T17:43:56.623Z,28.60
2017-09-06T17:44:56.600Z,27.60
2017-09-06T17:45:56.580Z,28.00
2017-09-06T17:46:56.560Z,26.80
2017-09-06T17:47:56.535Z,28.00
2017-09-06T17:48:56.519Z,26.90
2017-09-06T17:49:56.495Z,26.90
2017-09-06T17:50:56.474Z,27.20
2017-09-06T17:51:56.451Z,26.90
2017-09-06T17:52:56.431Z,27.10
2017-09-06T17:53:56.410Z,27.80
2017-09-06T17:54:56.389Z,27.20
2017-09-06T17:55:56.370Z,27.80
2017-09-06T17:56:56.348Z,26.40
2017-09-06T17:57:56.323Z,25.80
2017-09-06T17:58:56.305Z,24.70
2017-09-06T17:59:56.284Z,26.20
2017-09-06T18:00:56.262Z,25.20
2017-09-06T18:01:56.240Z,25.40
2017-09-06T18:02:56.216Z,24.70
2017-09-06T18:03:56.198Z,24.00
2017-09-06T18:04:56.175Z,23.50
2017-09-06T18:05:56.152Z,25.00
2017-09-06T18:06:56.134Z,25.20
2017-09-06T18:07:56.114Z,26.30
2017-09-06T18:08:56.093Z,24.30
2017-09-06T18:09:56.070Z,24.80
2017-09-06T18:10:56.046Z,24.60
2017-09-06T18:11:56.026Z,24.70
2017-09-06T18:12:56.002Z,22.60
2017-09-06T18:13:55.984Z,23.70
2017-09-06T18:14:55.959Z,23.50
2017-09-06T18:15:55.940Z,22.50
2017-09-06T18:16:55.919Z,22.20
2017-09-06T18:17:55.898Z,23.00
2017-09-06T18:18:55.875Z,22.10
2017-09-06T18:19:55.857Z,21.60
2017-09-06T18:20:55.836Z,22.40
2017-09-06T18:21:55.812Z,21.40
2017-09-06T18:22:55.792Z,22.00
2017-09-06T18:23:55.768Z,24.00
2017-09-06T18:24:55.749Z,22.00
2017-09-06T18:25:55.727Z,22.50
2017-09-06T18:26:55.705Z,22.80
2017-09-06T18:27:55.682Z,21.10
2017-09-06T18:28:55.666Z,20.40
2017-09-06T18:29:55.666Z,21.00
2017-09-06T18:30:55.634Z,19.80
2017-09-06T18:31:55.702Z,19.90
2017-09-06T18:32:55.608Z,19.90
2017-09-06T18:33:55.580Z,20.80
2017-09-06T18:34:55.588Z,20.10
2017-09-06T18:35:55.533Z,21.20
2017-09-06T18:36:55.556Z,20.50
2017-09-06T18:37:55.483Z,21.00
2017-09-06T18:38:55.477Z,19.20
2017-09-06T18:39:55.657Z,19.60
2017-09-06T18:40:55.427Z,18.90
2017-09-06T18:41:55.488Z,19.40
2017-09-06T18:42:55.386Z,19.80
2017-09-06T18:43:55.383Z,19.00
2017-09-06T18:44:55.340Z,19.50
2017-09-06T18:45:55.320Z,19.50
2017-09-06T18:46:55.280Z,19.30
2017-09-06T18:47:55.255Z,19.70
2017-09-06T18:48:55.270Z,18.20
2017-09-06T18:49:55.222Z,19.60
2017-09-06T18:50:55.219Z,18.10
2017-09-06T18:51:55.189Z,17.90
2017-09-06T18:52:55.164Z,18.80
2017-09-06T18:53:55.139Z,18.60
2017-09-06T18:54:55.130Z,17.90
2017-09-06T18:55:55.127Z,19.10
2017-09-06T18:56:55.069Z,17.80
2017-09-06T18:57:55.058Z,17.70
2017-09-06T18:58:55.049Z,16.10
2017-09-06T18:59:55.026Z,16.70
2017-09-06T19:00:55.002Z,16.60
2017-09-06T19:01:54.971Z,17.00
2017-09-06T19:02:54.948Z,16.80
2017-09-06T19:03:54.929Z,16.50
2017-09-06T19:04:54.905Z,16.30
2017-09-06T19:05:54.882Z,16.90
2017-09-06T19:06:54.868Z,16.50
2017-09-06T19:07:54.897Z,16.10
2017-09-06T19:08:54.845Z,16.60
2017-09-06T19:09:54.824Z,16.40
2017-09-06T19:10:54.782Z,17.00
2017-09-06T19:11:54.763Z,16.00
2017-09-06T19:12:54.747Z,16.10
2017-09-06T19:13:54.718Z,15.60
2017-09-06T19:14:54.694Z,16.10
2017-09-06T19:15:54.663Z,16.10
2017-09-06T19:16:54.635Z,15.70
2017-09-06T19:17:54.622Z,16.90
2017-09-06T19:18:54.593Z,16.50
2017-09-06T19:19:54.575Z,16.50
2017-09-06T19:20:54.549Z,16.10
2017-09-06T19:21:54.531Z,16.10
2017-09-06T19:22:54.515Z,14.80
2017-09-06T19:23:54.488Z,14.80
2017-09-06T19:24:54.465Z,14.40
2017-09-06T19:25:54.445Z,14.10
2017-09-06T19:26:54.425Z,15.40
2017-09-06T19:27:54.402Z,14.70
2017-09-06T19:28:54.398Z,15.10
2017-09-06T19:29:54.355Z,13.90
2017-09-06T19:30:54.348Z,14.40
2017-09-06T19:31:54.312Z,15.40
2017-09-06T19:32:54.299Z,15.90
2017-09-06T19:33:54.296Z,15.30
2017-09-06T19:34:54.258Z,14.80
2017-09-06T19:35:54.228Z,16.10
2017-09-06T19:36:54.205Z,23.40
2017-09-06T19:37:54.188Z,24.60
2017-09-06T19:38:54.166Z,22.20
2017-09-06T19:39:54.151Z,16.20
2017-09-06T19:40:54.128Z,14.90
2017-09-06T19:41:54.099Z,15.10
2017-09-06T19:42:54.085Z,14.60
2017-09-06T19:43:54.065Z,13.70
2017-09-06T19:44:54.035Z,14.70
2017-09-06T19:45:54.013Z,14.90
2017-09-06T19:46:53.993Z,13.60
2017-09-06T19:47:53.974Z,14.30
2017-09-06T19:48:53.952Z,12.70
2017-09-06T19:49:53.930Z,13.60
2017-09-06T19:50:53.910Z,15.40
2017-09-06T19:51:53.886Z,12.70
2017-09-06T19:52:53.876Z,11.70
2017-09-06T19:53:53.850Z,12.00
2017-09-06T19:54:53.833Z,12.70
2017-09-06T19:55:53.822Z,12.60
2017-09-06T19:56:53.804Z,12.10
2017-09-06T19:57:53.760Z,11.80
2017-09-06T19:58:53.797Z,12.60
2017-09-06T19:59:53.726Z,12.70
2017-09-06T20:00:53.731Z,12.00
2017-09-06T20:01:53.683Z,12.40
2017-09-06T20:02:53.688Z,10.90
2017-09-06T20:03:53.636Z,11.10
2017-09-06T20:04:53.616Z,11.60
2017-09-06T20:05:53.606Z,10.90
2017-09-06T20:06:53.582Z,10.90
2017-09-06T20:07:53.568Z,11.60
2017-09-06T20:08:53.530Z,11.50
2017-09-06T20:09:53.513Z,12.10
2017-09-06T20:10:53.476Z,11.40
2017-09-06T20:11:53.457Z,11.30
2017-09-06T20:12:53.437Z,10.40
2017-09-06T20:13:53.417Z,10.60
2017-09-06T20:14:53.393Z,10.40
2017-09-06T20:15:53.369Z,10.70
2017-09-06T20:16:53.347Z,11.00
2017-09-06T20:17:53.329Z,10.90
2017-09-06T20:18:53.307Z,10.00
2017-09-06T20:19:53.294Z,10.60
2017-09-06T20:20:53.260Z,10.70
2017-09-06T20:21:53.241Z,10.00
2017-09-06T20:22:53.219Z,9.40
2017-09-06T20:23:53.200Z,15.30
2017-09-06T20:24:53.181Z,15.40
2017-09-06T20:25:53.156Z,14.40
2017-09-06T20:26:53.132Z,12.20
2017-09-06T20:27:53.145Z,13.20
2017-09-06T20:28:53.093Z,11.70
2017-09-06T20:29:53.081Z,11.00
2017-09-06T20:30:53.066Z,11.00
2017-09-06T20:31:53.035Z,10.80
2017-09-06T20:32:53.008Z,10.50
2017-09-06T20:33:52.987Z,10.50
2017-09-06T20:34:52.965Z,11.30
2017-09-06T20:35:52.947Z,11.10
2017-09-06T20:36:52.922Z,11.30
2017-09-06T20:37:52.898Z,10.90
2017-09-06T20:38:52.875Z,10.90
2017-09-06T20:39:52.859Z,11.30
2017-09-06T20:40:52.833Z,10.80
2017-09-06T20:41:52.816Z,10.80
2017-09-06T20:42:52.788Z,10.70
2017-09-06T20:43:52.768Z,10.70
2017-09-06T20:44:52.749Z,10.80
2017-09-06T20:45:52.764Z,10.00
2017-09-06T20:46:52.706Z,11.00
2017-09-06T20:47:52.686Z,10.50
2017-09-06T20:48:52.665Z,10.10
2017-09-06T20:49:52.638Z,9.90
2017-09-06T20:50:52.617Z,9.80
2017-09-06T20:51:52.599Z,10.40
2017-09-06T20:52:52.576Z,10.00
2017-09-06T20:53:52.554Z,9.80
2017-09-06T20:54:52.531Z,9.70
2017-09-06T20:55:52.515Z,9.50
2017-09-06T20:56:52.490Z,9.80
2017-09-06T20:57:52.468Z,9.80
2017-09-06T20:58:52.445Z,9.70
2017-09-06T20:59:52.424Z,9.60
2017-09-06T21:00:52.403Z,9.30
2017-09-06T21:01:52.385Z,9.60
2017-09-06T21:02:52.359Z,9.00
2017-09-06T21:03:52.342Z,9.50
2017-09-06T21:04:52.318Z,10.50
2017-09-06T21:05:52.300Z,10.30
2017-09-06T21:06:52.278Z,9.50
2017-09-06T21:07:52.255Z,9.60
2017-09-06T21:08:52.231Z,10.00
2017-09-06T21:09:52.212Z,9.30
2017-09-06T21:10:52.189Z,9.20
2017-09-06T21:11:52.166Z,9.60
2017-09-06T21:12:52.150Z,9.00
2017-09-06T21:13:52.124Z,9.10
2017-09-06T21:14:52.103Z,9.00
2017-09-06T21:15:52.085Z,9.00
2017-09-06T21:16:52.059Z,9.00
2017-09-06T21:17:52.043Z,9.50
2017-09-06T21:18:52.018Z,9.00
2017-09-06T21:19:51.994Z,9.10
2017-09-06T21:20:51.977Z,8.40
2017-09-06T21:21:51.952Z,8.60
2017-09-06T21:22:51.935Z,8.60
2017-09-06T21:23:51.910Z,8.70
2017-09-06T21:24:51.891Z,8.50
2017-09-06T21:25:51.870Z,8.30
2017-09-06T21:26:51.848Z,8.90
2017-09-06T21:27:51.828Z,8.30
2017-09-06T21:28:51.803Z,9.10
2017-09-06T21:29:51.781Z,8.40
2017-09-06T21:30:51.765Z,8.50
2017-09-06T21:31:51.738Z,8.00
2017-09-06T21:32:51.719Z,8.10
2017-09-06T21:33:51.699Z,8.00
2017-09-06T21:34:51.676Z,8.10
2017-09-06T21:35:51.651Z,8.10